Time;durP1;ratioP1;P1;durP2;ratioP2;P2;SDS_P1;SDS_P2;PMS_P1;PMS_P2;Temp;Humidity;BMP_temperature;BMP_pressure;BME280_temperature;BME280_humidity;BME280_pressure;Samples;Min_cycle;Max_cycle;Signal;HPM_P1;HPM_P2
2023/12/29 00:02:12;;;;;;;244.88;173.05;;;;;;;;;;5032151;28;20024;-67
2023/12/29 00:04:38;;;;;;;237.65;165.50;;;;;;;;;;5032101;28;20021;-67
2023/12/29 00:07:04;;;;;;;232.98;160.82;;;;;;;;;;5032096;28;20029;-66
2023/12/29 00:09:30;;;;;;;234.23;162.38;;;;;;;;;;5031476;28;20025;-66
2023/12/29 00:11:56;;;;;;;226.55;159.48;;;;;;;;;;5032817;28;20478;-67
2023/12/29 00:14:22;;;;;;;222.95;155.10;;;;;;;;;;5033370;28;20140;-67
2023/12/29 00:16:48;;;;;;;213.50;149.07;;;;;;;;;;5032661;28;20109;-69
2023/12/29 00:19:14;;;;;;;217.90;155.27;;;;;;;;;;5031454;28;20100;-69
2023/12/29 00:21:40;;;;;;;218.98;150.57;;;;;;;;;;5031552;28;20021;-67
2023/12/29 00:24:06;;;;;;;219.32;150.43;;;;;;;;;;5031792;28;20546;-67
2023/12/29 00:26:32;;;;;;;210.80;149.40;;;;;;;;;;5031519;28;20052;-69
2023/12/29 00:28:58;;;;;;;212.20;144.15;;;;;;;;;;5031215;28;20455;-69
2023/12/29 00:31:24;;;;;;;204.05;146.55;;;;;;;;;;5031241;28;20025;-68
2023/12/29 00:33:52;;;;;;;205.60;142.90;;;;;;;;;;5031611;28;20025;-66
2023/12/29 00:36:18;;;;;;;206.40;141.50;;;;;;;;;;5031560;28;20075;-66
2023/12/29 00:38:45;;;;;;;195.93;138.57;;;;;;;;;;5031204;28;20022;-66
2023/12/29 00:41:11;;;;;;;192.27;138.57;;;;;;;;;;5031434;28;20025;-68
2023/12/29 00:43:37;;;;;;;194.52;138.18;;;;;;;;;;5031482;28;20116;-68
2023/12/29 00:46:03;;;;;;;187.52;132.48;;;;;;;;;;5031471;28;20096;-68
2023/12/29 00:48:30;;;;;;;185.27;128.60;;;;;;;;;;5030057;28;20036;-68
2023/12/29 00:50:56;;;;;;;192.32;135.60;;;;;;;;;;5031346;28;20022;-67
2023/12/29 00:53:22;;;;;;;184.52;130.68;;;;;;;;;;5029870;28;20028;-68
2023/12/29 00:55:48;;;;;;;184.45;129.93;;;;;;;;;;5072021;22;20061;-73
2023/12/29 00:58:14;;;;;;;189.68;133.15;;;;;;;;;;5029445;28;20044;-74
2023/12/29 01:00:40;;;;;;;181.82;129.75;;;;;;;;;;5045868;28;20051;-77
2023/12/29 01:03:06;;;;;;;182.48;125.45;;;;;;;;;;5029718;28;20052;-70
2023/12/29 01:05:32;;;;;;;173.15;120.60;;;;;;;;;;5028137;28;20033;-71
2023/12/29 01:07:58;;;;;;;168.65;117.22;;;;;;;;;;5030189;28;20025;-71
2023/12/29 01:10:23;;;;;;;167.70;117.72;;;;;;;;;;5039565;28;20465;-71
2023/12/29 01:12:49;;;;;;;168.57;119.07;;;;;;;;;;5049927;28;20040;-71
2023/12/29 01:15:16;;;;;;;169.07;120.97;;;;;;;;;;5048257;28;20048;-71
2023/12/29 01:17:42;;;;;;;166.95;117.88;;;;;;;;;;5049679;28;20025;-71
2023/12/29 01:20:08;;;;;;;166.90;118.57;;;;;;;;;;5048865;28;20521;-70
2023/12/29 01:22:34;;;;;;;161.25;112.88;;;;;;;;;;5033478;28;20014;-70
2023/12/29 01:25:00;;;;;;;157.63;111.90;;;;;;;;;;5029697;28;20116;-71
2023/12/29 01:27:26;;;;;;;165.45;114.95;;;;;;;;;;5029730;28;20018;-71
2023/12/29 01:29:52;;;;;;;157.80;111.05;;;;;;;;;;5028257;28;20026;-70
2023/12/29 01:32:19;;;;;;;158.18;109.88;;;;;;;;;;5044719;28;20055;-71
2023/12/29 01:34:45;;;;;;;151.30;105.32;;;;;;;;;;5049535;28;20021;-71
2023/12/29 01:37:11;;;;;;;145.95;105.50;;;;;;;;;;5049043;28;20028;-74
2023/12/29 01:39:37;;;;;;;144.30;103.32;;;;;;;;;;5046335;28;20421;-73
2023/12/29 01:42:03;;;;;;;141.57;99.72;;;;;;;;;;5044843;28;20049;-73
2023/12/29 01:44:29;;;;;;;146.13;100.60;;;;;;;;;;5037850;28;20017;-73
2023/12/29 01:46:57;;;;;;;143.52;101.32;;;;;;;;;;5052780;28;20021;-73
2023/12/29 01:49:23;;;;;;;138.75;99.00;;;;;;;;;;5052607;28;20446;-75
2023/12/29 01:51:56;;;;;;;136.88;98.00;;;;;;;;;;5038971;28;20628;-71
2023/12/29 01:54:23;;;;;;;134.98;97.20;;;;;;;;;;5034227;28;20462;-70
2023/12/29 01:56:50;;;;;;;139.57;96.68;;;;;;;;;;5033428;28;20033;-76
2023/12/29 01:59:16;;;;;;;134.85;93.53;;;;;;;;;;5048640;28;20389;-72
2023/12/29 02:01:42;;;;;;;33.72;23.83;;;;;;;;;;5036790;28;20017;-70
2023/12/29 02:04:09;;;;;;;29.05;20.80;;;;;;;;;;5052591;28;20406;-70
2023/12/29 02:06:35;;;;;;;82.03;52.00;;;;;;;;;;5037295;28;20406;-74
2023/12/29 02:09:03;;;;;;;103.53;70.97;;;;;;;;;;5032586;28;20466;-74
2023/12/29 02:11:30;;;;;;;91.63;59.13;;;;;;;;;;5032599;28;20151;-77
2023/12/29 02:13:56;;;;;;;81.75;52.47;;;;;;;;;;5045813;28;20021;-73
2023/12/29 02:16:34;;;;;;;89.65;57.53;;;;;;;;;;5032885;28;20047;-75
2023/12/29 02:19:01;;;;;;;78.38;54.17;;;;;;;;;;5032671;28;20033;-73
2023/12/29 02:21:27;;;;;;;84.63;52.78;;;;;;;;;;5032073;28;20048;-73
2023/12/29 02:23:53;;;;;;;85.90;52.28;;;;;;;;;;5031962;28;20033;-73
2023/12/29 02:26:21;;;;;;;78.82;52.60;;;;;;;;;;5032175;28;20359;-73
2023/12/29 02:28:53;;;;;;;85.47;52.38;;;;;;;;;;5031935;28;20466;-72
2023/12/29 02:31:21;;;;;;;78.07;50.55;;;;;;;;;;5032038;28;20025;-72
2023/12/29 02:33:48;;;;;;;69.18;47.45;;;;;;;;;;5032157;28;20049;-75
2023/12/29 02:36:14;;;;;;;77.45;48.58;;;;;;;;;;5032027;28;20051;-73
2023/12/29 02:38:40;;;;;;;72.75;49.13;;;;;;;;;;5032023;28;20064;-74
2023/12/29 02:41:06;;;;;;;72.32;46.88;;;;;;;;;;5032334;28;20062;-71
2023/12/29 02:43:32;;;;;;;79.07;46.85;;;;;;;;;;5032213;28;20546;-72
2023/12/29 02:45:59;;;;;;;71.93;46.08;;;;;;;;;;5032194;28;20635;-71
2023/12/29 02:48:25;;;;;;;64.95;44.03;;;;;;;;;;5031759;28;20045;-72
2023/12/29 02:50:51;;;;;;;70.32;45.15;;;;;;;;;;5031276;28;20037;-71
2023/12/29 02:53:17;;;;;;;68.20;42.78;;;;;;;;;;5030426;28;20116;-73
2023/12/29 02:55:43;;;;;;;62.80;42.33;;;;;;;;;;5031863;28;20320;-72
2023/12/29 02:58:09;;;;;;;61.67;41.13;;;;;;;;;;5030228;28;20124;-73
2023/12/29 03:00:35;;;;;;;66.15;42.60;;;;;;;;;;5031300;28;20164;-72
2023/12/29 03:03:01;;;;;;;56.88;39.33;;;;;;;;;;5031289;28;20056;-74
2023/12/29 03:05:27;;;;;;;58.65;38.70;;;;;;;;;;5031527;28;20490;-75
2023/12/29 03:07:53;;;;;;;53.10;37.70;;;;;;;;;;5031273;28;20025;-74
2023/12/29 03:10:19;;;;;;;57.45;39.55;;;;;;;;;;5031109;28;20109;-71
2023/12/29 03:12:45;;;;;;;54.95;38.50;;;;;;;;;;5031278;28;20025;-71
2023/12/29 03:15:11;;;;;;;57.15;38.10;;;;;;;;;;5031040;28;20075;-71
2023/12/29 03:17:37;;;;;;;57.80;36.80;;;;;;;;;;5030973;28;20038;-71
2023/12/29 03:20:04;;;;;;;47.78;33.45;;;;;;;;;;5031010;28;20021;-71
2023/12/29 03:22:31;;;;;;;52.33;35.65;;;;;;;;;;5030800;28;20100;-72
2023/12/29 03:24:57;;;;;;;51.95;36.00;;;;;;;;;;5030715;28;20391;-72
2023/12/29 03:27:23;;;;;;;52.20;35.20;;;;;;;;;;5029535;28;20022;-71
2023/12/29 03:29:49;;;;;;;54.25;35.78;;;;;;;;;;5029270;28;20486;-71
2023/12/29 03:32:15;;;;;;;51.05;34.70;;;;;;;;;;5030889;28;20029;-72
2023/12/29 03:34:41;;;;;;;49.53;34.13;;;;;;;;;;5030776;28;20020;-72
2023/12/29 03:37:07;;;;;;;49.65;33.47;;;;;;;;;;5030611;28;20013;-73
2023/12/29 03:39:36;;;;;;;49.22;32.72;;;;;;;;;;5030473;28;20037;-71
2023/12/29 03:42:02;;;;;;;49.78;33.33;;;;;;;;;;5029217;28;20018;-73
2023/12/29 03:44:28;;;;;;;45.10;30.98;;;;;;;;;;5030953;28;20033;-71
2023/12/29 03:46:54;;;;;;;46.97;32.55;;;;;;;;;;5030590;28;20099;-71
2023/12/29 03:49:20;;;;;;;49.28;32.42;;;;;;;;;;5031831;28;20021;-73
2023/12/29 03:51:46;;;;;;;47.83;31.73;;;;;;;;;;5032344;28;20032;-72
2023/12/29 03:54:12;;;;;;;48.10;31.42;;;;;;;;;;5032520;28;20022;-72
2023/12/29 03:56:38;;;;;;;45.30;30.80;;;;;;;;;;5032009;28;20739;-72
2023/12/29 03:59:04;;;;;;;46.15;30.10;;;;;;;;;;5031894;28;20032;-72
2023/12/29 04:01:34;;;;;;;43.40;30.08;;;;;;;;;;5032147;28;20013;-73
2023/12/29 04:04:00;;;;;;;43.70;29.85;;;;;;;;;;5031800;28;20028;-72
2023/12/29 04:06:26;;;;;;;40.17;28.40;;;;;;;;;;5032053;28;20449;-73
2023/12/29 04:08:52;;;;;;;46.00;27.92;;;;;;;;;;5032099;28;20075;-73
2023/12/29 04:11:18;;;;;;;47.65;29.55;;;;;;;;;;5031957;28;20018;-74
2023/12/29 04:13:44;;;;;;;43.85;28.60;;;;;;;;;;5051311;28;20021;-73
2023/12/29 04:16:10;;;;;;;41.95;28.70;;;;;;;;;;5052569;28;20017;-74
2023/12/29 04:18:36;;;;;;;39.20;27.15;;;;;;;;;;5051614;28;20028;-73
2023/12/29 04:21:02;;;;;;;39.45;26.90;;;;;;;;;;5051687;28;20024;-74
2023/12/29 04:23:28;;;;;;;37.22;26.60;;;;;;;;;;5051782;28;20013;-72
2023/12/29 04:25:54;;;;;;;38.78;26.65;;;;;;;;;;5051541;28;20021;-73
2023/12/29 04:28:20;;;;;;;39.92;26.30;;;;;;;;;;5051605;28;20025;-72
2023/12/29 04:30:46;;;;;;;37.80;25.38;;;;;;;;;;5049966;28;20501;-73
2023/12/29 04:33:12;;;;;;;39.42;26.42;;;;;;;;;;5050298;28;20021;-73
2023/12/29 04:35:38;;;;;;;37.35;25.00;;;;;;;;;;5051061;28;20025;-71
2023/12/29 04:38:06;;;;;;;40.85;24.75;;;;;;;;;;5051284;28;20112;-73
2023/12/29 04:40:32;;;;;;;38.15;24.20;;;;;;;;;;5051260;28;20014;-74
2023/12/29 04:42:58;;;;;;;34.03;24.20;;;;;;;;;;5050355;28;20139;-72
2023/12/29 04:45:24;;;;;;;31.75;22.98;;;;;;;;;;5051383;28;20024;-72
2023/12/29 04:47:50;;;;;;;35.22;23.88;;;;;;;;;;5051169;28;20029;-73
2023/12/29 04:50:16;;;;;;;41.75;23.17;;;;;;;;;;5051267;28;20017;-73
2023/12/29 04:52:42;;;;;;;34.92;22.40;;;;;;;;;;5051289;28;20075;-70
2023/12/29 04:55:08;;;;;;;40.65;22.55;;;;;;;;;;5051310;28;20498;-73
2023/12/29 04:57:34;;;;;;;36.20;21.73;;;;;;;;;;5051033;28;20513;-73
2023/12/29 05:00:01;;;;;;;30.02;20.05;;;;;;;;;;5051070;28;20021;-73
2023/12/29 05:02:27;;;;;;;31.48;19.92;;;;;;;;;;5051196;28;20504;-73
2023/12/29 05:04:53;;;;;;;32.40;20.42;;;;;;;;;;5051070;28;20025;-73
2023/12/29 05:07:19;;;;;;;33.00;21.48;;;;;;;;;;5051096;28;20017;-73
2023/12/29 05:09:45;;;;;;;27.55;18.95;;;;;;;;;;5050745;28;20017;-74
2023/12/29 05:12:11;;;;;;;29.50;19.85;;;;;;;;;;5051205;28;20024;-73
2023/12/29 05:14:37;;;;;;;28.70;19.35;;;;;;;;;;5049671;28;20078;-71
2023/12/29 05:17:03;;;;;;;27.23;19.48;;;;;;;;;;5052804;28;20021;-73
2023/12/29 05:19:29;;;;;;;34.90;19.45;;;;;;;;;;5053599;28;20030;-72
2023/12/29 05:21:55;;;;;;;28.50;19.15;;;;;;;;;;5055345;28;20017;-73
2023/12/29 05:24:21;;;;;;;26.30;18.42;;;;;;;;;;5055956;28;20032;-73
2023/12/29 05:26:47;;;;;;;27.65;18.83;;;;;;;;;;5055212;28;20100;-72
2023/12/29 05:29:13;;;;;;;28.33;19.05;;;;;;;;;;5053939;28;20379;-72
2023/12/29 05:31:39;;;;;;;32.22;19.13;;;;;;;;;;5055421;28;20025;-74
2023/12/29 05:34:05;;;;;;;26.10;18.42;;;;;;;;;;5055745;28;20036;-75
2023/12/29 05:36:31;;;;;;;26.35;18.02;;;;;;;;;;5054694;28;20382;-73
2023/12/29 05:38:57;;;;;;;28.17;19.73;;;;;;;;;;5053817;28;20486;-75
2023/12/29 05:41:23;;;;;;;25.33;17.52;;;;;;;;;;5053262;28;20473;-75
2023/12/29 05:43:49;;;;;;;30.05;18.48;;;;;;;;;;5054633;28;20111;-75
2023/12/29 05:46:15;;;;;;;25.73;17.88;;;;;;;;;;5039547;28;20014;-72
2023/12/29 05:48:41;;;;;;;24.50;17.63;;;;;;;;;;5034499;28;20033;-72
2023/12/29 05:51:10;;;;;;;24.83;17.27;;;;;;;;;;5033430;28;20024;-72
2023/12/29 05:53:37;;;;;;;26.33;17.42;;;;;;;;;;5034803;28;20036;-73
2023/12/29 05:56:03;;;;;;;25.35;16.70;;;;;;;;;;5034440;28;20025;-73
2023/12/29 05:58:29;;;;;;;25.92;17.42;;;;;;;;;;5033745;28;20076;-72
2023/12/29 06:00:56;;;;;;;22.70;16.48;;;;;;;;;;5040542;28;20521;-73
2023/12/29 06:03:22;;;;;;;27.35;17.52;;;;;;;;;;5055823;28;20021;-73
2023/12/29 06:05:48;;;;;;;23.48;16.15;;;;;;;;;;5055202;28;20566;-73
2023/12/29 06:08:14;;;;;;;22.10;15.90;;;;;;;;;;5038920;28;20491;-74
2023/12/29 06:10:41;;;;;;;25.25;16.45;;;;;;;;;;5033221;28;20052;-74
2023/12/29 06:13:07;;;;;;;25.55;16.80;;;;;;;;;;5034294;28;20017;-74
2023/12/29 06:15:33;;;;;;;20.13;14.30;;;;;;;;;;5033982;28;20045;-74
2023/12/29 06:17:59;;;;;;;24.73;15.88;;;;;;;;;;5034037;28;20108;-75
2023/12/29 06:20:25;;;;;;;20.92;13.75;;;;;;;;;;5033526;28;20093;-74
2023/12/29 06:22:51;;;;;;;20.90;14.38;;;;;;;;;;5033991;28;20104;-73
2023/12/29 06:25:17;;;;;;;19.88;14.40;;;;;;;;;;5032628;28;20483;-73
2023/12/29 06:27:43;;;;;;;22.48;14.70;;;;;;;;;;5033624;28;20112;-72
2023/12/29 06:30:12;;;;;;;20.75;14.15;;;;;;;;;;5033680;28;20029;-73
2023/12/29 06:32:39;;;;;;;19.95;13.90;;;;;;;;;;5033722;28;20035;-73
2023/12/29 06:35:06;;;;;;;21.63;15.27;;;;;;;;;;5033629;28;20026;-75
2023/12/29 06:37:32;;;;;;;19.98;13.18;;;;;;;;;;5033979;28;20040;-75
2023/12/29 06:39:58;;;;;;;18.48;12.63;;;;;;;;;;5032296;28;20017;-72
2023/12/29 06:42:24;;;;;;;20.20;13.77;;;;;;;;;;5033662;28;20024;-72
2023/12/29 06:44:50;;;;;;;22.27;14.20;;;;;;;;;;5033615;28;20037;-75
2023/12/29 06:47:17;;;;;;;20.17;13.77;;;;;;;;;;5032093;28;20024;-74
2023/12/29 06:49:43;;;;;;;21.92;14.25;;;;;;;;;;5033222;28;20105;-76
2023/12/29 06:52:09;;;;;;;20.02;13.40;;;;;;;;;;5033467;28;20021;-76
2023/12/29 06:54:35;;;;;;;20.42;13.95;;;;;;;;;;5033028;28;20017;-71
2023/12/29 06:57:01;;;;;;;19.65;13.07;;;;;;;;;;5038677;28;20047;-74
2023/12/29 06:59:27;;;;;;;21.20;13.95;;;;;;;;;;5053555;28;20021;-72
2023/12/29 07:01:53;;;;;;;23.73;13.68;;;;;;;;;;5053047;28;20029;-71
2023/12/29 07:04:19;;;;;;;22.98;13.60;;;;;;;;;;5053121;28;20071;-71
2023/12/29 07:06:45;;;;;;;23.38;13.55;;;;;;;;;;5053140;28;20075;-73
2023/12/29 07:09:11;;;;;;;31.98;14.70;;;;;;;;;;5053261;28;20043;-73
2023/12/29 07:11:37;;;;;;;29.45;15.40;;;;;;;;;;5053182;28;20021;-71
2023/12/29 07:14:03;;;;;;;42.13;15.70;;;;;;;;;;5053530;28;20501;-73
2023/12/29 07:16:29;;;;;;;31.88;15.68;;;;;;;;;;5053822;28;20047;-72
2023/12/29 07:18:55;;;;;;;47.50;17.60;;;;;;;;;;5052868;28;20545;-72
2023/12/29 07:21:21;;;;;;;36.55;15.85;;;;;;;;;;5051619;28;20071;-72
2023/12/29 07:23:47;;;;;;;36.05;17.35;;;;;;;;;;5052869;28;20083;-73
2023/12/29 07:26:13;;;;;;;41.65;22.55;;;;;;;;;;5052711;28;20048;-72
2023/12/29 07:28:39;;;;;;;39.50;22.50;;;;;;;;;;5052071;28;20490;-73
2023/12/29 07:31:05;;;;;;;35.35;22.23;;;;;;;;;;5052493;28;20100;-73
2023/12/29 07:33:31;;;;;;;40.42;24.15;;;;;;;;;;5050874;28;20060;-71
2023/12/29 07:35:57;;;;;;;35.42;22.27;;;;;;;;;;5032466;28;20018;-73
2023/12/29 07:38:24;;;;;;;34.50;23.30;;;;;;;;;;5031588;28;20029;-73
2023/12/29 07:40:50;;;;;;;32.97;22.08;;;;;;;;;;5032352;28;20372;-72
2023/12/29 07:43:19;;;;;;;33.85;22.02;;;;;;;;;;5031290;28;20024;-72
2023/12/29 07:45:45;;;;;;;39.17;23.23;;;;;;;;;;5032403;28;20033;-73
2023/12/29 07:48:11;;;;;;;37.17;24.73;;;;;;;;;;5032655;28;20075;-73
2023/12/29 07:50:37;;;;;;;37.63;24.80;;;;;;;;;;5030800;28;20037;-74
2023/12/29 07:53:04;;;;;;;38.08;24.83;;;;;;;;;;5032478;28;20025;-74
2023/12/29 07:55:31;;;;;;;39.22;24.88;;;;;;;;;;5032705;28;20029;-72
2023/12/29 07:57:57;;;;;;;38.30;25.48;;;;;;;;;;5032721;28;20029;-72
2023/12/29 08:00:23;;;;;;;32.92;22.35;;;;;;;;;;5032428;28;20018;-72
2023/12/29 08:02:50;;;;;;;34.15;23.55;;;;;;;;;;5031203;28;20099;-72
2023/12/29 08:05:16;;;;;;;35.00;21.77;;;;;;;;;;5031793;28;20022;-72
2023/12/29 08:07:43;;;;;;;35.42;22.77;;;;;;;;;;5032090;28;20021;-73
2023/12/29 08:10:09;;;;;;;51.88;22.20;;;;;;;;;;5031829;28;20013;-72
2023/12/29 08:12:35;;;;;;;49.13;25.05;;;;;;;;;;5032349;28;20067;-72
2023/12/29 08:15:02;;;;;;;46.88;22.33;;;;;;;;;;5032971;28;20433;-70
2023/12/29 08:17:28;;;;;;;40.28;23.08;;;;;;;;;;5031682;28;20071;-72
2023/12/29 08:19:54;;;;;;;37.35;20.73;;;;;;;;;;5035768;28;20066;-73
2023/12/29 08:22:21;;;;;;;43.75;22.42;;;;;;;;;;5051561;28;20104;-71
2023/12/29 08:24:48;;;;;;;62.10;21.30;;;;;;;;;;5031404;28;20429;-70
2023/12/29 08:27:14;;;;;;;32.88;18.10;;;;;;;;;;5030372;28;20018;-70
2023/12/29 08:29:40;;;;;;;52.17;19.23;;;;;;;;;;5030321;28;20032;-70
2023/12/29 08:32:06;;;;;;;43.70;20.13;;;;;;;;;;5031607;28;20022;-71
2023/12/29 08:34:33;;;;;;;33.35;19.70;;;;;;;;;;5031557;28;20025;-70
2023/12/29 08:36:59;;;;;;;37.35;18.77;;;;;;;;;;5031497;28;20017;-69
2023/12/29 08:39:25;;;;;;;31.42;18.67;;;;;;;;;;5030151;28;20402;-68
2023/12/29 08:41:51;;;;;;;34.42;18.80;;;;;;;;;;5030304;28;20025;-71
2023/12/29 08:44:18;;;;;;;42.83;17.75;;;;;;;;;;5031544;28;20024;-70
2023/12/29 08:46:44;;;;;;;48.83;18.38;;;;;;;;;;5031208;28;20018;-72
2023/12/29 08:49:10;;;;;;;36.58;14.80;;;;;;;;;;5039472;28;20052;-69
2023/12/29 08:51:36;;;;;;;16.13;8.05;;;;;;;;;;5049549;28;20393;-70
2023/12/29 08:54:03;;;;;;;12.70;7.00;;;;;;;;;;5049515;28;20025;-71
2023/12/29 08:56:29;;;;;;;8.88;5.28;;;;;;;;;;5051002;28;20025;-70
2023/12/29 08:58:55;;;;;;;7.25;4.18;;;;;;;;;;5051419;28;20048;-71
2023/12/29 09:01:21;;;;;;;9.85;3.25;;;;;;;;;;5042260;28;20049;-70
2023/12/29 09:03:47;;;;;;;4.88;3.28;;;;;;;;;;5028938;28;20021;-74
2023/12/29 09:06:13;;;;;;;9.52;5.07;;;;;;;;;;5028952;28;20021;-74
2023/12/29 09:08:39;;;;;;;13.57;5.20;;;;;;;;;;5029379;28;20029;-75
2023/12/29 09:11:05;;;;;;;8.48;5.30;;;;;;;;;;5029698;28;20034;-75
2023/12/29 09:13:32;;;;;;;5.53;4.25;;;;;;;;;;5028876;28;20033;-75
2023/12/29 09:15:59;;;;;;;10.27;5.15;;;;;;;;;;5028525;28;20399;-74
2023/12/29 09:18:25;;;;;;;8.63;5.22;;;;;;;;;;5030689;28;20502;-74
2023/12/29 09:20:51;;;;;;;8.80;4.55;;;;;;;;;;5029829;28;20030;-74
2023/12/29 09:23:17;;;;;;;9.48;5.25;;;;;;;;;;5031278;28;20105;-73
2023/12/29 09:25:43;;;;;;;19.17;8.35;;;;;;;;;;5031169;28;20101;-72
2023/12/29 09:28:09;;;;;;;17.42;7.78;;;;;;;;;;5029887;28;20053;-72
2023/12/29 09:30:35;;;;;;;23.17;8.00;;;;;;;;;;5029358;28;20032;-74
2023/12/29 09:33:01;;;;;;;31.33;7.53;;;;;;;;;;5029739;28;20556;-74
2023/12/29 09:35:27;;;;;;;25.77;7.38;;;;;;;;;;5030769;28;20034;-74
2023/12/29 09:37:53;;;;;;;26.23;7.55;;;;;;;;;;5031023;28;20621;-74
2023/12/29 09:40:20;;;;;;;22.00;6.57;;;;;;;;;;5030939;28;20101;-74
2023/12/29 09:42:46;;;;;;;10.35;6.30;;;;;;;;;;5046321;28;20084;-74
2023/12/29 09:45:13;;;;;;;18.85;6.38;;;;;;;;;;5030994;28;20022;-75
2023/12/29 09:47:43;;;;;;;10.50;6.07;;;;;;;;;;5031015;28;20430;-74
2023/12/29 09:50:12;;;;;;;12.52;5.95;;;;;;;;;;5044429;28;20036;-74
2023/12/29 09:52:39;;;;;;;12.07;5.63;;;;;;;;;;5030909;28;20081;-73
2023/12/29 09:55:05;;;;;;;14.57;6.70;;;;;;;;;;5030864;28;20021;-74
2023/12/29 09:57:32;;;;;;;13.55;6.25;;;;;;;;;;5030973;28;20056;-74
2023/12/29 09:59:59;;;;;;;14.48;5.43;;;;;;;;;;5030809;28;20029;-74
2023/12/29 10:02:25;;;;;;;9.10;5.40;;;;;;;;;;5032634;28;20021;-74
2023/12/29 10:04:51;;;;;;;9.75;5.50;;;;;;;;;;5034268;28;20025;-73
2023/12/29 10:07:27;;;;;;;15.15;5.78;;;;;;;;;;5034386;28;20092;-74
2023/12/29 10:09:55;;;;;;;8.38;4.68;;;;;;;;;;5034336;28;20168;-75
2023/12/29 10:12:21;;;;;;;8.57;4.82;;;;;;;;;;5034537;28;20462;-75
2023/12/29 10:14:49;;;;;;;7.70;4.63;;;;;;;;;;5034400;28;20644;-75
2023/12/29 10:17:34;;;;;;;9.32;5.20;;;;;;;;;;5034121;28;20091;-75
2023/12/29 10:20:10;;;;;;;10.18;4.72;;;;;;;;;;5049518;28;20494;-75
2023/12/29 10:22:48;;;;;;;11.07;4.60;;;;;;;;;;5034249;28;20507;-72
2023/12/29 10:25:14;;;;;;;8.82;3.40;;;;;;;;;;5049173;28;20029;-73
2023/12/29 10:27:40;;;;;;;8.63;4.07;;;;;;;;;;5034214;28;20021;-73
2023/12/29 10:30:10;;;;;;;6.30;3.88;;;;;;;;;;5033837;28;20026;-73
2023/12/29 10:32:36;;;;;;;8.50;4.65;;;;;;;;;;5033925;28;20025;-73
2023/12/29 10:35:11;;;;;;;6.90;3.92;;;;;;;;;;5049088;28;20083;-73
2023/12/29 10:37:38;;;;;;;7.80;4.35;;;;;;;;;;5033889;28;20029;-73
2023/12/29 10:40:04;;;;;;;9.32;4.32;;;;;;;;;;5033670;28;20036;-75
2023/12/29 10:42:30;;;;;;;6.20;4.03;;;;;;;;;;5033800;28;20475;-74
2023/12/29 10:45:06;;;;;;;6.95;4.10;;;;;;;;;;5033793;28;20101;-74
2023/12/29 10:47:33;;;;;;;4.75;3.60;;;;;;;;;;5033352;28;20040;-73
2023/12/29 10:50:03;;;;;;;6.93;3.25;;;;;;;;;;5034115;28;20025;-73
2023/12/29 10:52:30;;;;;;;6.05;3.38;;;;;;;;;;5033880;28;20437;-73
2023/12/29 10:55:06;;;;;;;7.22;3.97;;;;;;;;;;5033700;28;20055;-75
2023/12/29 10:57:32;;;;;;;6.30;3.65;;;;;;;;;;5033677;28;20101;-73
2023/12/29 11:00:00;;;;;;;4.47;3.10;;;;;;;;;;5033061;28;20029;-75
2023/12/29 11:02:26;;;;;;;6.50;3.30;;;;;;;;;;5033462;28;20364;-73
2023/12/29 11:04:52;;;;;;;4.55;3.30;;;;;;;;;;5033368;28;20025;-73
2023/12/29 11:07:38;;;;;;;6.28;3.70;;;;;;;;;;5033641;28;20018;-72
2023/12/29 11:10:08;;;;;;;12.77;4.03;;;;;;;;;;5033169;28;20029;-73
2023/12/29 11:12:35;;;;;;;9.95;3.30;;;;;;;;;;5032958;28;20163;-73
2023/12/29 11:15:05;;;;;;;7.60;3.58;;;;;;;;;;5047647;28;20029;-74
2023/12/29 11:17:32;;;;;;;10.75;4.10;;;;;;;;;;5033259;28;20486;-74
2023/12/29 11:19:59;;;;;;;7.38;3.70;;;;;;;;;;5033030;28;20025;-73
2023/12/29 11:22:27;;;;;;;7.47;4.05;;;;;;;;;;5033124;28;20026;-74
2023/12/29 11:24:53;;;;;;;10.93;3.88;;;;;;;;;;5033149;28;20028;-72
2023/12/29 11:27:20;;;;;;;8.10;3.28;;;;;;;;;;5032973;28;20033;-73
2023/12/29 11:29:46;;;;;;;7.93;3.72;;;;;;;;;;5032724;28;20395;-72
2023/12/29 11:32:15;;;;;;;11.20;3.38;;;;;;;;;;5048127;28;20021;-73
2023/12/29 11:34:47;;;;;;;35.65;4.93;;;;;;;;;;5032451;28;20068;-69
2023/12/29 11:37:27;;;;;;;19.77;3.60;;;;;;;;;;5032935;28;20021;-71
2023/12/29 11:39:58;;;;;;;6.40;3.50;;;;;;;;;;5032490;28;20032;-75
2023/12/29 11:42:31;;;;;;;15.38;3.70;;;;;;;;;;5048082;28;20434;-72
2023/12/29 11:44:57;;;;;;;10.23;3.13;;;;;;;;;;5032782;28;20479;-72
2023/12/29 11:47:36;;;;;;;9.68;3.47;;;;;;;;;;5032962;28;20025;-72
2023/12/29 11:50:03;;;;;;;13.55;3.88;;;;;;;;;;5047483;28;20040;-72
2023/12/29 11:52:35;;;;;;;11.15;3.97;;;;;;;;;;5032540;28;20087;-74
2023/12/29 11:55:11;;;;;;;8.80;3.35;;;;;;;;;;5047383;28;20033;-72
2023/12/29 11:57:38;;;;;;;8.13;2.70;;;;;;;;;;5032330;28;20029;-73
2023/12/29 12:00:07;;;;;;;9.38;3.20;;;;;;;;;;5032265;28;20071;-76
2023/12/29 12:02:33;;;;;;;6.60;2.75;;;;;;;;;;5047696;28;20109;-73
2023/12/29 12:04:59;;;;;;;9.30;3.30;;;;;;;;;;5047694;28;20109;-70
2023/12/29 12:07:25;;;;;;;6.10;2.42;;;;;;;;;;5047614;28;20138;-71
2023/12/29 12:09:54;;;;;;;8.00;3.13;;;;;;;;;;5031526;28;20537;-72
2023/12/29 12:12:40;;;;;;;12.05;2.97;;;;;;;;;;5031004;28;20124;-75
2023/12/29 12:15:26;;;;;;;6.43;3.03;;;;;;;;;;5030984;28;20104;-73
2023/12/29 12:17:52;;;;;;;3.70;2.13;;;;;;;;;;5031986;28;20057;-73
2023/12/29 12:20:18;;;;;;;7.80;2.78;;;;;;;;;;5031862;28;20029;-73
2023/12/29 12:22:45;;;;;;;8.05;2.22;;;;;;;;;;5031850;28;20052;-73
2023/12/29 12:25:12;;;;;;;8.52;2.63;;;;;;;;;;5031114;28;20474;-73
2023/12/29 12:27:39;;;;;;;5.72;2.08;;;;;;;;;;5031923;28;20029;-73
2023/12/29 12:30:05;;;;;;;4.22;2.22;;;;;;;;;;5031611;28;20529;-73
2023/12/29 12:32:31;;;;;;;6.82;2.35;;;;;;;;;;5031693;28;20088;-75
2023/12/29 12:34:57;;;;;;;5.00;2.10;;;;;;;;;;5031716;28;20048;-73
2023/12/29 12:37:23;;;;;;;2.72;1.77;;;;;;;;;;5031871;28;20022;-75
2023/12/29 12:39:49;;;;;;;4.85;1.80;;;;;;;;;;5046813;28;20052;-74
2023/12/29 12:42:20;;;;;;;7.80;2.08;;;;;;;;;;5031771;28;20029;-74
2023/12/29 12:45:18;;;;;;;17.50;2.10;;;;;;;;;;5029941;28;20482;-71
2023/12/29 12:47:52;;;;;;;13.25;2.28;;;;;;;;;;4997942;28;20048;-71
2023/12/29 12:50:18;;;;;;;7.90;1.90;;;;;;;;;;5031136;28;20479;-71
2023/12/29 12:52:45;;;;;;;4.35;1.70;;;;;;;;;;5031410;28;20048;-72
2023/12/29 12:55:11;;;;;;;3.83;1.52;;;;;;;;;;5030485;28;20013;-71
2023/12/29 12:57:37;;;;;;;7.35;1.77;;;;;;;;;;5029208;28;20083;-71
2023/12/29 13:00:05;;;;;;;10.25;1.83;;;;;;;;;;5053522;22;20042;-67
2023/12/29 13:02:32;;;;;;;12.93;1.85;;;;;;;;;;5030995;28;20032;-68
2023/12/29 13:04:58;;;;;;;10.77;2.13;;;;;;;;;;5030012;28;20017;-67
2023/12/29 13:07:24;;;;;;;41.88;24.40;;;;;;;;;;5046512;28;20501;-66
2023/12/29 13:09:51;;;;;;;128.32;80.00;;;;;;;;;;5042973;28;20030;-66
2023/12/29 13:12:18;;;;;;;129.63;86.20;;;;;;;;;;5011589;28;20107;-67
2023/12/29 13:14:45;;;;;;;136.05;89.65;;;;;;;;;;5011049;28;20037;-67
2023/12/29 13:17:12;;;;;;;138.45;95.15;;;;;;;;;;5011510;28;20053;-67
2023/12/29 13:19:39;;;;;;;139.85;94.53;;;;;;;;;;5011211;28;20030;-68
2023/12/29 13:22:08;;;;;;;142.48;96.72;;;;;;;;;;5011535;28;20022;-67
2023/12/29 13:24:36;;;;;;;139.32;93.63;;;;;;;;;;5011716;28;20021;-67
2023/12/29 13:27:06;;;;;;;143.75;93.93;;;;;;;;;;5011273;28;20535;-68
2023/12/29 13:29:33;;;;;;;135.20;90.50;;;;;;;;;;5012079;28;20461;-67
2023/12/29 13:32:07;;;;;;;137.48;90.65;;;;;;;;;;5013318;28;20049;-67
2023/12/29 13:34:53;;;;;;;130.93;86.22;;;;;;;;;;5012240;28;20053;-67
2023/12/29 13:37:19;;;;;;;122.78;84.20;;;;;;;;;;5011541;28;20030;-67
2023/12/29 13:39:53;;;;;;;123.38;83.00;;;;;;;;;;5014696;28;20045;-67
2023/12/29 13:42:20;;;;;;;115.22;77.32;;;;;;;;;;5015128;28;20418;-67
2023/12/29 13:44:47;;;;;;;110.50;75.00;;;;;;;;;;5015084;28;20049;-66
2023/12/29 13:47:13;;;;;;;108.93;72.82;;;;;;;;;;5015029;28;20014;-66
2023/12/29 13:49:40;;;;;;;105.35;69.20;;;;;;;;;;5014336;28;20594;-67
2023/12/29 13:52:06;;;;;;;100.60;66.05;;;;;;;;;;5014953;28;20499;-66
2023/12/29 13:54:41;;;;;;;103.57;67.38;;;;;;;;;;5012688;28;20049;-67
2023/12/29 13:57:08;;;;;;;97.70;65.20;;;;;;;;;;5013597;28;20060;-67
2023/12/29 13:59:34;;;;;;;94.03;62.83;;;;;;;;;;5013420;28;20037;-67
2023/12/29 14:02:04;;;;;;;94.45;62.15;;;;;;;;;;5014052;28;20398;-68
2023/12/29 14:04:30;;;;;;;94.15;61.13;;;;;;;;;;5014660;28;20022;-67
2023/12/29 14:07:00;;;;;;;91.95;59.63;;;;;;;;;;5015319;28;20014;-67
2023/12/29 14:09:26;;;;;;;96.95;58.15;;;;;;;;;;5014058;28;20160;-67
2023/12/29 14:11:53;;;;;;;87.75;56.80;;;;;;;;;;5014637;28;20113;-67
2023/12/29 14:14:23;;;;;;;81.40;55.00;;;;;;;;;;5014937;28;20512;-68
2023/12/29 14:16:49;;;;;;;84.63;53.25;;;;;;;;;;5014877;28;20446;-68
2023/12/29 14:19:15;;;;;;;87.55;53.22;;;;;;;;;;5013569;28;20022;-68